Nearby METAR Reports

 

EDNY - Friedrichshafen, Germany
Distance from station: ONO 32km
aktuell: 25.06.2019 22:20
klar
klar
 Wind von O
Wind: O 6 km/h
Temperatur: 23°C
Taupunkt: 19°C
Luftfeuchte: 78%
Luftdruck: 1021 hPa
Clouds: klar
Visibility: 10 km
2019/06/25 20:20 EDNY 252020Z AUTO 08003KT 9999 // NCD 23/19 Q1021
LSZR - Rheineck/Altenrh, Switzerland
Distance from station: OSO 37km
aktuell: 25.06.2019 22:20
klar
klar
 Wind von varies
Wind: varies 2 km/h
Temperatur: 22°C
Taupunkt: 19°C
Luftfeuchte: 83%
Luftdruck: 1021 hPa
Zusammenfassung: klar
Visibility: greater than 10 km
2019/06/25 20:20 LSZR 252020Z AUTO VRB01KT CAVOK 22/19 Q1021
LSMD - Dubendorf, Switzerland
Distance from station: SW 40km
aktuell: 25.06.2019 22:20
klar
klar
 Wind von calm
Wind: Windstill
Temperatur: 25°C
Taupunkt: 20°C
Luftfeuchte: 74%
Luftdruck: 1021 hPa
Clouds: klar
Visibility: 10 km
2019/06/25 20:20 LSMD 252020Z AUTO 00000KT 9999NDV R11/M0050N R29/P2000N NCD 25/20 Q1021 RMK
 
LSZH - Zurich-Kloten (a, Switzerland
Distance from station: WSW 44km
aktuell: 25.06.2019 22:20
klar
klar
 Wind von varies
Wind: varies 4 km/h
Temperatur: 24°C
Taupunkt: 20°C
Luftfeuchte: 78%
Luftdruck: 1021 hPa
Zusammenfassung: klar
Visibility: greater than 10 km
2019/06/25 20:20 LSZH 252020Z VRB02KT CAVOK 24/20 Q1021 NOSIG
LOIH - Hohenems-Dornbir, Austria
Distance from station: OSO 51km
aktuell: 31.10.2016 17:00
NOT Current
geschlossene Wolkendecke
geschlossene Wolkendecke
 Wind von calm
Wind: Windstill
Temperatur: 10°C
Taupunkt: 9°C
Luftfeuchte: 94%
Luftdruck: 1026 hPa
Clouds: geschlossene Wolkendecke
Cloud details: geschlossene Wolkendecke 305 m
2016/10/31 16:00 LOIH 311600Z 00000KT 10KM OVC010ST 10/09 Q1026 RMK OVC
LSME - Emmen, Switzerland
Distance from station: SW 82km
aktuell: 25.06.2019 22:20
klar
klar
 Wind von SW
Wind: SW 6 km/h
Temperatur: 26°C
Taupunkt: 20°C
Luftfeuchte: 70%
Luftdruck: 1021 hPa
Clouds: klar
Visibility: 10 km
2019/06/25 20:20 LSME 252020Z AUTO 22003KT 170V260 9999NDV NCD 26/20 Q1021 RMK
 
LSZC - Buochs, Switzerland
Distance from station: SW 89km
aktuell: 25.06.2019 22:20
klar
klar
 Wind von W
Wind: W 7 km/h
Temperatur: 25°C
Taupunkt: 18°C
Luftfeuchte: 65%
Luftdruck: 1022 hPa
Zusammenfassung: klar
Visibility: greater than 10 km
2019/06/25 20:20 LSZC 252020Z AUTO 26004KT CAVOK 25/18 Q1022
ETHL - Laupheim (ger-Ar, Germany
Distance from station: NO 92km
aktuell: 25.06.2019 22:20
teilweise bewölkt
teilweise bewölkt
 Wind von ONO
Wind: ONO 9 km/h
Temperatur: 25°C
Taupunkt: 18°C
Luftfeuchte: 65%
Luftdruck: 1022 hPa
Clouds: teilweise bewölkt
Visibility: 10 km
Cloud details: teilweise bewölkt 11582 m
2019/06/25 20:20 ETHL 252020Z 07005KT 9999 SCT380 25/18 Q1022 BLU+
EDJA - Memmingen Allgau, Germany
Distance from station: ONO 95km
aktuell: 25.06.2019 22:20
klar
klar
 Wind von ONO
Wind: ONO 7 km/h
Temperatur: 22°C
Taupunkt: 19°C
Luftfeuchte: 83%
Luftdruck: 1023 hPa
Zusammenfassung: klar
Visibility: greater than 10 km
2019/06/25 20:20 EDJA 252020Z 06004KT CAVOK 22/19 Q1023
 
LSMA - Alpnach, Switzerland
Distance from station: SW 95km
aktuell: 25.06.2019 22:20
klar
klar
 Wind von varies
Wind: varies 4 km/h
Temperatur: 24°C
Taupunkt: 20°C
Luftfeuchte: 78%
Luftdruck: 1022 hPa
Clouds: klar
Visibility: 3 km
2019/06/25 20:20 LSMA 252020Z AUTO VRB02KT 2600NDV NCD 24/20 Q1022 RMK